Time;durP1;ratioP1;P1;durP2;ratioP2;P2;SDS_P1;SDS_P2;PMS_P1;PMS_P2;Temp;Humidity;BMP_temperature;BMP_pressure;BME280_temperature;BME280_humidity;BME280_pressure;Samples;Min_cycle;Max_cycle;Signal;HPM_P1;HPM_P2
2022/03/04 00:00:47;;;;;;;16.80;8.90;;;;;;;;;;5093787;28;20048;-69
2022/03/04 00:03:13;;;;;;;17.63;8.80;;;;;;;;;;5094336;28;20071;-69
2022/03/04 00:05:40;;;;;;;17.58;8.65;;;;;;;;;;5094222;28;20055;-69
2022/03/04 00:08:06;;;;;;;16.05;8.13;;;;;;;;;;5073361;28;20376;-69
2022/03/04 00:10:32;;;;;;;17.60;8.35;;;;;;;;;;5081247;28;20089;-69
2022/03/04 00:12:58;;;;;;;15.27;7.65;;;;;;;;;;5093371;28;20093;-69
2022/03/04 00:15:24;;;;;;;19.13;8.40;;;;;;;;;;5092996;28;20498;-69
2022/03/04 00:17:50;;;;;;;16.77;8.23;;;;;;;;;;5092776;28;20059;-69
2022/03/04 00:20:16;;;;;;;17.63;8.63;;;;;;;;;;5092951;28;20471;-69
2022/03/04 00:22:43;;;;;;;13.73;7.30;;;;;;;;;;5092134;28;20067;-69
2022/03/04 00:25:09;;;;;;;15.98;7.82;;;;;;;;;;5093971;28;20409;-69
2022/03/04 00:27:35;;;;;;;17.42;8.30;;;;;;;;;;5093915;28;20028;-69
2022/03/04 00:30:01;;;;;;;17.83;7.97;;;;;;;;;;5092921;28;20048;-69
2022/03/04 00:32:28;;;;;;;15.55;7.70;;;;;;;;;;5092482;28;20048;-69
2022/03/04 00:34:54;;;;;;;18.33;8.00;;;;;;;;;;5092352;28;20075;-69
2022/03/04 00:37:20;;;;;;;18.00;8.15;;;;;;;;;;5093025;28;20139;-69
2022/03/04 00:39:46;;;;;;;17.42;8.23;;;;;;;;;;5092420;28;20040;-69
2022/03/04 00:42:12;;;;;;;16.55;7.82;;;;;;;;;;5093862;28;20028;-69
2022/03/04 00:44:38;;;;;;;14.43;7.50;;;;;;;;;;5092786;28;20483;-69
2022/03/04 00:47:08;;;;;;;16.20;8.60;;;;;;;;;;5093577;28;20055;-69
2022/03/04 00:49:34;;;;;;;17.60;8.07;;;;;;;;;;5092565;28;20051;-69
2022/03/04 00:52:00;;;;;;;15.88;7.63;;;;;;;;;;5092982;28;20130;-69
2022/03/04 00:54:27;;;;;;;17.13;8.43;;;;;;;;;;5093118;28;20093;-69
2022/03/04 00:56:53;;;;;;;16.38;8.40;;;;;;;;;;5092069;28;20470;-69
2022/03/04 00:59:19;;;;;;;15.80;7.90;;;;;;;;;;5091283;28;20052;-69
2022/03/04 01:01:45;;;;;;;18.05;8.77;;;;;;;;;;5091715;28;20051;-69
2022/03/04 01:04:12;;;;;;;16.77;8.18;;;;;;;;;;5091921;28;20770;-69
2022/03/04 01:06:39;;;;;;;16.90;7.95;;;;;;;;;;5092459;28;20043;-71
2022/03/04 01:09:05;;;;;;;18.98;8.68;;;;;;;;;;5091746;28;20048;-70
2022/03/04 01:11:31;;;;;;;17.35;8.30;;;;;;;;;;5093049;28;20382;-70
2022/03/04 01:13:57;;;;;;;16.25;8.48;;;;;;;;;;5091092;28;20048;-70
2022/03/04 01:16:24;;;;;;;15.63;8.02;;;;;;;;;;5092525;28;20101;-70
2022/03/04 01:18:50;;;;;;;19.27;8.88;;;;;;;;;;5091797;28;20530;-70
2022/03/04 01:21:16;;;;;;;14.35;7.88;;;;;;;;;;5090799;28;20124;-70
2022/03/04 01:23:42;;;;;;;20.75;9.15;;;;;;;;;;5092281;28;20040;-70
2022/03/04 01:26:08;;;;;;;20.75;8.98;;;;;;;;;;5092545;28;20043;-70
2022/03/04 01:28:34;;;;;;;19.02;9.25;;;;;;;;;;5092427;28;20499;-70
2022/03/04 01:31:00;;;;;;;18.42;8.85;;;;;;;;;;5091165;28;20063;-70
2022/03/04 01:33:26;;;;;;;16.88;8.27;;;;;;;;;;5092877;28;20422;-70
2022/03/04 01:35:53;;;;;;;14.65;8.10;;;;;;;;;;5092313;28;20536;-70
2022/03/04 01:38:18;;;;;;;19.38;8.77;;;;;;;;;;5091787;28;20221;-70
2022/03/04 01:40:45;;;;;;;16.58;8.52;;;;;;;;;;5091339;28;20554;-70
2022/03/04 01:43:11;;;;;;;17.98;9.13;;;;;;;;;;5092523;28;20039;-70
2022/03/04 01:45:37;;;;;;;15.98;8.48;;;;;;;;;;5091503;28;20044;-70
2022/03/04 01:48:03;;;;;;;21.00;8.48;;;;;;;;;;5091249;28;20660;-70
2022/03/04 01:50:29;;;;;;;18.65;8.43;;;;;;;;;;5092616;28;20105;-70
2022/03/04 01:52:55;;;;;;;17.95;9.30;;;;;;;;;;5091755;28;20759;-70
2022/03/04 01:55:22;;;;;;;15.98;8.85;;;;;;;;;;5091727;28;20039;-70
2022/03/04 01:57:48;;;;;;;19.75;9.18;;;;;;;;;;5092562;28;20039;-70
2022/03/04 02:00:14;;;;;;;16.88;8.85;;;;;;;;;;5091343;28;20044;-70
2022/03/04 02:02:42;;;;;;;18.45;8.80;;;;;;;;;;5090414;28;20093;-70
2022/03/04 02:05:11;;;;;;;16.73;9.23;;;;;;;;;;5092221;28;20047;-70
2022/03/04 02:07:37;;;;;;;18.83;8.93;;;;;;;;;;5091207;28;20036;-70
2022/03/04 02:10:03;;;;;;;18.60;9.38;;;;;;;;;;5090844;28;20047;-70
2022/03/04 02:12:29;;;;;;;19.98;9.35;;;;;;;;;;5090524;28;20145;-70
2022/03/04 02:14:55;;;;;;;18.38;9.95;;;;;;;;;;5091423;28;20543;-70
2022/03/04 02:17:21;;;;;;;19.60;9.02;;;;;;;;;;5091591;28;20040;-70
2022/03/04 02:19:54;;;;;;;19.33;9.00;;;;;;;;;;5091624;28;20044;-70
2022/03/04 02:22:20;;;;;;;18.15;9.60;;;;;;;;;;5091401;28;20032;-70
2022/03/04 02:24:46;;;;;;;19.58;9.43;;;;;;;;;;5092065;28;20043;-70
2022/03/04 02:27:13;;;;;;;19.67;9.10;;;;;;;;;;5090110;28;20040;-70
2022/03/04 02:29:39;;;;;;;21.85;9.68;;;;;;;;;;5090911;28;20060;-70
2022/03/04 02:32:05;;;;;;;20.88;9.85;;;;;;;;;;5091810;28;20428;-70
2022/03/04 02:34:31;;;;;;;23.75;10.70;;;;;;;;;;5089921;28;20048;-70
2022/03/04 02:36:58;;;;;;;21.08;10.30;;;;;;;;;;5089287;28;20055;-70
2022/03/04 02:39:24;;;;;;;23.08;10.38;;;;;;;;;;5090342;28;20055;-70
2022/03/04 02:41:50;;;;;;;23.35;10.02;;;;;;;;;;5090337;28;20052;-70
2022/03/04 02:44:16;;;;;;;19.67;10.25;;;;;;;;;;5089276;28;20036;-70
2022/03/04 02:46:42;;;;;;;22.35;10.07;;;;;;;;;;5091278;28;20036;-70
2022/03/04 02:49:09;;;;;;;23.05;10.55;;;;;;;;;;5090270;28;20051;-70
2022/03/04 02:51:36;;;;;;;23.63;10.68;;;;;;;;;;5089173;28;20040;-70
2022/03/04 02:54:02;;;;;;;25.05;10.60;;;;;;;;;;5091513;28;20098;-70
2022/03/04 02:56:28;;;;;;;24.02;10.98;;;;;;;;;;5091212;28;20043;-70
2022/03/04 02:58:54;;;;;;;22.42;9.80;;;;;;;;;;5089273;28;20036;-69
2022/03/04 03:01:20;;;;;;;22.13;10.00;;;;;;;;;;5090114;28;20052;-70
2022/03/04 03:03:46;;;;;;;22.60;11.10;;;;;;;;;;5091196;28;20036;-70
2022/03/04 03:06:12;;;;;;;22.95;10.88;;;;;;;;;;5089279;28;20067;-70
2022/03/04 03:08:38;;;;;;;20.08;10.38;;;;;;;;;;5090101;28;20050;-70
2022/03/04 03:11:05;;;;;;;22.17;10.38;;;;;;;;;;5089899;28;20044;-70
2022/03/04 03:13:31;;;;;;;22.30;10.95;;;;;;;;;;5090859;28;20043;-70
2022/03/04 03:15:57;;;;;;;25.55;11.70;;;;;;;;;;5089700;28;20134;-70
2022/03/04 03:18:23;;;;;;;22.90;10.57;;;;;;;;;;5090840;28;20071;-70
2022/03/04 03:20:49;;;;;;;24.40;10.40;;;;;;;;;;5089282;28;20040;-70
2022/03/04 03:23:15;;;;;;;20.80;10.73;;;;;;;;;;5091011;28;20036;-70
2022/03/04 03:25:41;;;;;;;24.02;11.10;;;;;;;;;;5090758;28;20115;-70
2022/03/04 03:28:07;;;;;;;23.92;10.43;;;;;;;;;;5089856;28;20047;-70
2022/03/04 03:30:33;;;;;;;25.83;11.18;;;;;;;;;;5091220;28;20434;-70
2022/03/04 03:32:59;;;;;;;22.92;10.63;;;;;;;;;;5091046;28;20719;-70
2022/03/04 03:35:26;;;;;;;23.92;10.88;;;;;;;;;;5090093;28;20040;-70
2022/03/04 03:37:52;;;;;;;25.02;12.02;;;;;;;;;;5089419;28;20047;-70
2022/03/04 03:40:18;;;;;;;20.35;10.27;;;;;;;;;;5089748;28;20535;-70
2022/03/04 03:42:44;;;;;;;23.10;11.07;;;;;;;;;;5090434;28;20040;-70
2022/03/04 03:45:11;;;;;;;22.42;10.50;;;;;;;;;;5089515;28;20761;-70
2022/03/04 03:47:38;;;;;;;22.85;10.65;;;;;;;;;;5092417;28;20370;-70
2022/03/04 03:50:05;;;;;;;25.05;11.65;;;;;;;;;;5094258;28;20043;-70
2022/03/04 03:52:31;;;;;;;23.83;11.30;;;;;;;;;;5093509;28;20093;-70
2022/03/04 03:54:58;;;;;;;27.85;11.43;;;;;;;;;;5093223;28;20407;-70
2022/03/04 03:57:25;;;;;;;26.05;11.88;;;;;;;;;;5093812;28;20713;-70
2022/03/04 03:59:51;;;;;;;24.25;11.80;;;;;;;;;;5092899;28;20044;-70
2022/03/04 04:02:18;;;;;;;23.20;10.68;;;;;;;;;;5094382;28;20036;-70
2022/03/04 04:04:44;;;;;;;27.75;12.40;;;;;;;;;;5093379;28;20094;-70
2022/03/04 04:07:11;;;;;;;25.33;11.63;;;;;;;;;;5094569;28;20040;-70
2022/03/04 04:09:37;;;;;;;25.88;12.60;;;;;;;;;;5092842;28;20044;-70
2022/03/04 04:12:03;;;;;;;25.95;11.55;;;;;;;;;;5092155;28;20044;-70
2022/03/04 04:14:30;;;;;;;27.92;10.85;;;;;;;;;;5092911;28;20125;-70
2022/03/04 04:16:56;;;;;;;27.20;11.50;;;;;;;;;;5093902;28;20044;-70
2022/03/04 04:19:23;;;;;;;26.90;11.45;;;;;;;;;;5091765;28;20044;-70
2022/03/04 04:21:49;;;;;;;25.50;12.05;;;;;;;;;;5094260;28;20127;-70
2022/03/04 04:24:16;;;;;;;25.40;11.95;;;;;;;;;;5093873;28;20040;-70
2022/03/04 04:26:42;;;;;;;31.70;13.13;;;;;;;;;;5091977;28;20043;-70
2022/03/04 04:29:08;;;;;;;31.02;13.43;;;;;;;;;;5093684;28;20051;-70
2022/03/04 04:31:35;;;;;;;30.48;12.90;;;;;;;;;;5084811;28;20129;-70
2022/03/04 04:34:01;;;;;;;28.45;13.20;;;;;;;;;;5092032;28;20051;-70
2022/03/04 04:36:28;;;;;;;28.15;12.30;;;;;;;;;;5092118;28;20044;-70
2022/03/04 04:38:54;;;;;;;30.35;13.07;;;;;;;;;;5092166;28;20479;-70
2022/03/04 04:41:20;;;;;;;26.52;12.38;;;;;;;;;;5091732;28;20040;-70
2022/03/04 04:43:46;;;;;;;32.58;14.32;;;;;;;;;;5092196;28;20078;-70
2022/03/04 04:46:12;;;;;;;25.73;12.18;;;;;;;;;;5092010;28;20072;-70
2022/03/04 04:48:38;;;;;;;30.27;14.15;;;;;;;;;;5092780;28;20040;-70
2022/03/04 04:51:05;;;;;;;30.60;13.90;;;;;;;;;;5093647;28;20467;-70
2022/03/04 04:53:31;;;;;;;34.25;14.63;;;;;;;;;;5092289;28;20044;-70
2022/03/04 04:55:58;;;;;;;30.60;13.90;;;;;;;;;;5092544;28;20044;-70
2022/03/04 04:58:24;;;;;;;34.78;15.52;;;;;;;;;;5091120;28;20557;-70
2022/03/04 05:00:53;;;;;;;35.30;15.10;;;;;;;;;;5091877;28;20059;-70
2022/03/04 05:03:26;;;;;;;29.65;13.77;;;;;;;;;;5092482;28;20063;-70
2022/03/04 05:05:53;;;;;;;29.48;14.20;;;;;;;;;;5091816;28;20101;-70
2022/03/04 05:08:20;;;;;;;31.17;13.90;;;;;;;;;;5091605;28;20131;-70
2022/03/04 05:10:46;;;;;;;34.17;16.08;;;;;;;;;;5091067;28;20074;-70
2022/03/04 05:13:13;;;;;;;29.83;14.40;;;;;;;;;;5091819;28;20040;-70
2022/03/04 05:15:39;;;;;;;32.88;15.73;;;;;;;;;;5091942;28;20501;-70
2022/03/04 05:18:06;;;;;;;31.45;14.88;;;;;;;;;;5092696;28;20046;-70
2022/03/04 05:20:32;;;;;;;31.30;14.75;;;;;;;;;;5092766;28;20370;-70
2022/03/04 05:22:58;;;;;;;31.83;13.75;;;;;;;;;;5091618;28;20374;-70
2022/03/04 05:25:24;;;;;;;28.30;13.80;;;;;;;;;;5090983;28;20044;-70
2022/03/04 05:27:50;;;;;;;32.42;14.90;;;;;;;;;;5091328;28;20040;-70
2022/03/04 05:30:16;;;;;;;34.50;15.27;;;;;;;;;;5091331;28;20185;-70
2022/03/04 05:32:42;;;;;;;37.35;15.73;;;;;;;;;;5092909;28;20048;-70
2022/03/04 05:35:08;;;;;;;30.85;15.07;;;;;;;;;;5092088;28;20043;-70
2022/03/04 05:37:35;;;;;;;32.13;14.80;;;;;;;;;;5092653;28;20075;-70
2022/03/04 05:40:01;;;;;;;30.67;14.85;;;;;;;;;;5092364;28;20362;-70
2022/03/04 05:42:27;;;;;;;33.65;15.13;;;;;;;;;;5090553;28;20054;-70
2022/03/04 05:44:53;;;;;;;35.55;16.17;;;;;;;;;;5091041;28;20502;-70
2022/03/04 05:47:19;;;;;;;36.80;15.02;;;;;;;;;;5092539;28;20482;-70
2022/03/04 05:49:45;;;;;;;31.42;13.82;;;;;;;;;;5090306;28;20043;-70
2022/03/04 05:52:11;;;;;;;34.67;16.17;;;;;;;;;;5092404;28;20394;-70
2022/03/04 05:54:37;;;;;;;35.00;16.27;;;;;;;;;;5092513;28;20085;-70
2022/03/04 05:57:03;;;;;;;32.85;15.38;;;;;;;;;;5091069;28;20036;-70
2022/03/04 05:59:29;;;;;;;36.47;15.63;;;;;;;;;;5090415;28;20128;-70
2022/03/04 06:01:55;;;;;;;33.67;15.45;;;;;;;;;;5090056;28;20040;-70
2022/03/04 06:04:22;;;;;;;36.88;16.58;;;;;;;;;;5091145;28;20042;-70
2022/03/04 06:06:48;;;;;;;35.25;15.38;;;;;;;;;;5090825;28;20040;-70
2022/03/04 06:09:14;;;;;;;34.95;15.60;;;;;;;;;;5091266;28;20047;-70
2022/03/04 06:11:40;;;;;;;31.10;15.18;;;;;;;;;;5091059;28;20105;-70
2022/03/04 06:14:06;;;;;;;36.45;16.15;;;;;;;;;;5090507;28;20086;-70
2022/03/04 06:16:33;;;;;;;35.13;15.30;;;;;;;;;;5090246;28;20048;-70
2022/03/04 06:18:59;;;;;;;34.00;17.25;;;;;;;;;;5090001;28;20126;-70
2022/03/04 06:21:25;;;;;;;34.63;16.00;;;;;;;;;;5090264;28;20052;-70
2022/03/04 06:23:52;;;;;;;35.17;16.27;;;;;;;;;;5090407;28;20644;-70
2022/03/04 06:26:18;;;;;;;34.70;16.45;;;;;;;;;;5089485;28;20047;-70
2022/03/04 06:28:44;;;;;;;32.42;14.80;;;;;;;;;;5089857;28;20482;-70
2022/03/04 06:31:10;;;;;;;35.92;14.77;;;;;;;;;;5089913;28;20052;-70
2022/03/04 06:33:38;;;;;;;39.80;16.25;;;;;;;;;;5091122;28;20621;-70
2022/03/04 06:36:13;;;;;;;29.15;15.13;;;;;;;;;;5091555;28;20374;-70
2022/03/04 06:38:41;;;;;;;34.85;15.23;;;;;;;;;;5091471;28;20043;-70
2022/03/04 06:41:07;;;;;;;31.33;14.80;;;;;;;;;;5089323;28;20069;-70
2022/03/04 06:43:33;;;;;;;33.85;15.32;;;;;;;;;;5090227;28;20657;-70
2022/03/04 06:45:59;;;;;;;31.17;14.32;;;;;;;;;;5091517;28;20036;-70
2022/03/04 06:48:26;;;;;;;36.05;15.60;;;;;;;;;;5089144;28;20391;-70
2022/03/04 06:50:53;;;;;;;32.35;14.00;;;;;;;;;;5090162;28;20490;-70
2022/03/04 06:53:20;;;;;;;30.73;14.68;;;;;;;;;;5090033;28;20052;-70
2022/03/04 06:55:46;;;;;;;34.95;16.15;;;;;;;;;;5089496;28;20047;-70
2022/03/04 06:58:13;;;;;;;31.40;14.75;;;;;;;;;;5090344;28;20375;-70
2022/03/04 07:00:40;;;;;;;41.15;16.30;;;;;;;;;;5089416;28;20474;-70
2022/03/04 07:03:07;;;;;;;31.55;15.77;;;;;;;;;;5090661;28;20044;-69
2022/03/04 07:05:33;;;;;;;32.42;15.43;;;;;;;;;;5089806;28;20085;-70
2022/03/04 07:07:59;;;;;;;30.48;14.27;;;;;;;;;;5072783;28;20039;-70
2022/03/04 07:10:25;;;;;;;30.77;14.07;;;;;;;;;;5088952;28;20051;-70
2022/03/04 07:12:52;;;;;;;28.73;14.43;;;;;;;;;;5090041;28;20051;-70
2022/03/04 07:15:19;;;;;;;34.60;16.75;;;;;;;;;;5090064;28;20048;-70
2022/03/04 07:17:45;;;;;;;37.78;16.40;;;;;;;;;;5089012;28;20048;-70
2022/03/04 07:20:11;;;;;;;35.35;16.15;;;;;;;;;;5089786;28;20040;-70
2022/03/04 07:22:38;;;;;;;33.75;16.58;;;;;;;;;;5086495;28;20131;-68
2022/03/04 07:25:05;;;;;;;34.10;16.58;;;;;;;;;;5089039;28;20046;-69
2022/03/04 07:27:33;;;;;;;36.38;15.77;;;;;;;;;;5094880;28;20040;-69
2022/03/04 07:29:59;;;;;;;34.47;16.13;;;;;;;;;;5094124;28;20720;-69
2022/03/04 07:32:25;;;;;;;34.72;15.60;;;;;;;;;;5090034;28;20090;-70
2022/03/04 07:34:51;;;;;;;33.20;14.32;;;;;;;;;;5090308;28;20726;-67
2022/03/04 07:37:17;;;;;;;30.85;15.80;;;;;;;;;;5092358;28;20036;-67
2022/03/04 07:39:43;;;;;;;33.90;16.38;;;;;;;;;;5092426;28;20040;-65
2022/03/04 07:42:09;;;;;;;34.95;15.60;;;;;;;;;;5094437;28;20097;-68
2022/03/04 07:44:35;;;;;;;33.30;16.00;;;;;;;;;;5092571;28;20436;-66
2022/03/04 07:47:01;;;;;;;32.67;15.73;;;;;;;;;;5093386;28;20040;-66
2022/03/04 07:49:27;;;;;;;31.67;15.73;;;;;;;;;;5092332;28;20085;-66
2022/03/04 07:51:54;;;;;;;31.85;14.50;;;;;;;;;;5094069;28;20040;-66
2022/03/04 07:54:20;;;;;;;32.47;15.38;;;;;;;;;;5093612;28;20048;-67
2022/03/04 07:56:46;;;;;;;30.23;14.20;;;;;;;;;;5092331;28;20060;-67
2022/03/04 07:59:12;;;;;;;33.33;15.23;;;;;;;;;;5093910;28;20055;-67
2022/03/04 08:01:39;;;;;;;33.75;15.27;;;;;;;;;;5092744;28;20186;-66
2022/03/04 08:04:05;;;;;;;33.92;15.30;;;;;;;;;;5093547;28;20081;-65
2022/03/04 08:06:32;;;;;;;34.97;15.95;;;;;;;;;;5093877;28;20107;-65
2022/03/04 08:08:58;;;;;;;38.42;16.45;;;;;;;;;;5092889;28;20178;-65
2022/03/04 08:11:24;;;;;;;39.40;18.00;;;;;;;;;;5092595;28;20048;-66
2022/03/04 08:13:50;;;;;;;36.47;16.85;;;;;;;;;;5092991;28;20032;-66
2022/03/04 08:16:16;;;;;;;39.22;18.10;;;;;;;;;;5092391;28;20047;-68
2022/03/04 08:18:42;;;;;;;38.47;16.65;;;;;;;;;;5091958;28;20561;-67
2022/03/04 08:21:08;;;;;;;41.05;17.38;;;;;;;;;;5093500;28;20028;-67
2022/03/04 08:23:34;;;;;;;36.88;15.73;;;;;;;;;;5093064;28;20039;-66
2022/03/04 08:26:03;;;;;;;40.30;18.15;;;;;;;;;;5092824;28;20044;-66
2022/03/04 08:28:30;;;;;;;37.70;18.98;;;;;;;;;;5093039;28;20056;-66
2022/03/04 08:30:56;;;;;;;38.03;17.45;;;;;;;;;;5092337;28;20048;-67
2022/03/04 08:33:24;;;;;;;34.10;16.35;;;;;;;;;;5090020;28;20044;-67
2022/03/04 08:35:51;;;;;;;31.40;14.98;;;;;;;;;;5092553;28;20040;-66
2022/03/04 08:38:17;;;;;;;33.60;16.55;;;;;;;;;;5091171;28;20054;-67
2022/03/04 08:40:43;;;;;;;32.85;14.73;;;;;;;;;;5093227;28;20463;-68
2022/03/04 08:43:09;;;;;;;28.45;15.48;;;;;;;;;;5091810;28;20555;-67
2022/03/04 08:45:35;;;;;;;28.67;14.50;;;;;;;;;;5091935;28;20036;-67
2022/03/04 08:48:06;;;;;;;30.67;14.70;;;;;;;;;;5092711;28;20538;-67
2022/03/04 08:50:33;;;;;;;33.38;15.85;;;;;;;;;;5092828;28;20040;-67
2022/03/04 08:53:02;;;;;;;29.67;15.57;;;;;;;;;;5092220;28;20116;-65
2022/03/04 08:55:30;;;;;;;35.88;16.58;;;;;;;;;;5093093;28;20522;-66
2022/03/04 08:57:57;;;;;;;35.00;15.57;;;;;;;;;;5092452;28;20079;-68
2022/03/04 09:00:23;;;;;;;28.85;15.30;;;;;;;;;;5091680;28;20035;-65
2022/03/04 09:02:49;;;;;;;30.77;15.23;;;;;;;;;;5092684;28;20050;-67
2022/03/04 09:05:16;;;;;;;30.48;14.35;;;;;;;;;;5091292;28;20036;-66
2022/03/04 09:07:42;;;;;;;30.70;14.75;;;;;;;;;;5092177;28;20128;-66
2022/03/04 09:10:08;;;;;;;29.17;14.25;;;;;;;;;;5091987;28;20032;-67
2022/03/04 09:12:35;;;;;;;29.40;14.65;;;;;;;;;;5092350;28;20462;-66
2022/03/04 09:15:01;;;;;;;30.20;14.75;;;;;;;;;;5091647;28;20107;-68
2022/03/04 09:17:28;;;;;;;28.45;13.57;;;;;;;;;;5092131;28;20092;-67
2022/03/04 09:19:54;;;;;;;27.52;14.68;;;;;;;;;;5092412;28;20036;-66
2022/03/04 09:22:20;;;;;;;27.55;15.18;;;;;;;;;;5090505;28;20043;-69
2022/03/04 09:24:46;;;;;;;25.20;14.10;;;;;;;;;;5092024;28;20519;-67
2022/03/04 09:27:12;;;;;;;28.73;13.88;;;;;;;;;;5091935;28;20040;-66
2022/03/04 09:29:38;;;;;;;28.60;14.27;;;;;;;;;;5091041;28;20060;-67
2022/03/04 09:32:05;;;;;;;26.55;13.13;;;;;;;;;;5091100;28;20047;-68
2022/03/04 09:34:31;;;;;;;27.67;14.27;;;;;;;;;;5090777;28;20039;-67
2022/03/04 09:36:57;;;;;;;30.90;15.48;;;;;;;;;;5091016;28;20178;-66
2022/03/04 09:39:23;;;;;;;26.88;13.65;;;;;;;;;;5091013;28;20039;-68
2022/03/04 09:41:49;;;;;;;26.73;13.73;;;;;;;;;;5092141;28;20036;-68
2022/03/04 09:44:16;;;;;;;27.88;14.90;;;;;;;;;;5091866;28;20044;-68
2022/03/04 09:46:42;;;;;;;28.25;15.60;;;;;;;;;;5091308;28;20036;-69
2022/03/04 09:49:09;;;;;;;29.23;14.05;;;;;;;;;;5092042;28;20028;-67
2022/03/04 09:51:35;;;;;;;32.80;16.23;;;;;;;;;;5090992;28;20464;-68
2022/03/04 09:54:02;;;;;;;30.05;15.35;;;;;;;;;;5090788;28;20363;-68
2022/03/04 09:56:28;;;;;;;31.08;14.85;;;;;;;;;;5092085;28;20043;-68
2022/03/04 09:58:54;;;;;;;26.77;13.70;;;;;;;;;;5092017;28;20083;-67
2022/03/04 10:01:20;;;;;;;27.98;14.32;;;;;;;;;;5091199;28;20127;-69
2022/03/04 10:03:50;;;;;;;32.63;15.50;;;;;;;;;;5090847;28;20040;-68
2022/03/04 10:06:17;;;;;;;29.55;14.15;;;;;;;;;;5090006;28;20044;-69
2022/03/04 10:08:44;;;;;;;30.17;14.88;;;;;;;;;;5089250;28;20117;-68
2022/03/04 10:11:11;;;;;;;30.00;15.32;;;;;;;;;;5091078;28;20067;-67
2022/03/04 10:13:46;;;;;;;27.67;14.65;;;;;;;;;;5089638;28;20052;-67
2022/03/04 10:16:13;;;;;;;27.92;14.68;;;;;;;;;;5090328;28;20050;-67
2022/03/04 10:18:40;;;;;;;29.30;14.40;;;;;;;;;;5088098;28;20080;-67
2022/03/04 10:21:06;;;;;;;26.10;14.73;;;;;;;;;;5089731;28;20331;-67
2022/03/04 10:23:32;;;;;;;27.50;15.32;;;;;;;;;;5091003;28;20127;-66
2022/03/04 10:25:59;;;;;;;25.05;13.95;;;;;;;;;;5089410;28;20394;-67
2022/03/04 10:28:26;;;;;;;27.55;13.80;;;;;;;;;;5089728;28;20040;-67
2022/03/04 10:30:53;;;;;;;25.42;14.07;;;;;;;;;;5090740;28;20565;-67
2022/03/04 10:33:19;;;;;;;29.30;15.00;;;;;;;;;;5089670;28;20089;-67
2022/03/04 10:35:45;;;;;;;27.42;14.10;;;;;;;;;;5091181;28;20609;-67
2022/03/04 10:38:19;;;;;;;29.63;14.82;;;;;;;;;;5090514;28;20478;-68
2022/03/04 10:40:45;;;;;;;29.65;15.07;;;;;;;;;;5090551;28;20090;-69
2022/03/04 10:43:12;;;;;;;26.50;14.45;;;;;;;;;;5089245;28;20128;-67
2022/03/04 10:45:40;;;;;;;28.35;13.80;;;;;;;;;;5089850;28;20588;-69
2022/03/04 10:48:08;;;;;;;25.85;13.63;;;;;;;;;;5089576;28;20079;-69
2022/03/04 10:50:35;;;;;;;30.80;14.10;;;;;;;;;;5090694;28;20043;-68
2022/03/04 10:53:06;;;;;;;26.40;13.75;;;;;;;;;;5090113;28;20040;-67
2022/03/04 10:55:32;;;;;;;27.65;14.05;;;;;;;;;;5090884;28;20131;-67
2022/03/04 10:57:59;;;;;;;26.95;14.05;;;;;;;;;;5089717;28;20494;-66
2022/03/04 11:00:26;;;;;;;29.20;13.82;;;;;;;;;;5090698;28;20040;-67
2022/03/04 11:02:53;;;;;;;30.98;14.85;;;;;;;;;;5089733;28;20044;-68
2022/03/04 11:05:19;;;;;;;26.50;13.45;;;;;;;;;;5089216;28;20040;-66
2022/03/04 11:07:46;;;;;;;30.58;14.57;;;;;;;;;;5089306;28;20474;-66
2022/03/04 11:10:12;;;;;;;29.92;15.70;;;;;;;;;;5089606;28;20386;-68
2022/03/04 11:12:42;;;;;;;27.38;13.75;;;;;;;;;;5089407;28;20074;-68
2022/03/04 11:15:10;;;;;;;27.23;14.57;;;;;;;;;;5089202;28;20101;-68
2022/03/04 11:17:36;;;;;;;26.92;14.18;;;;;;;;;;5089406;28;20127;-68
2022/03/04 11:20:02;;;;;;;35.95;15.00;;;;;;;;;;5091020;28;20048;-68
2022/03/04 11:22:28;;;;;;;31.92;14.65;;;;;;;;;;5074799;28;20093;-68
2022/03/04 11:25:00;;;;;;;26.80;13.35;;;;;;;;;;5078702;28;20116;-69
2022/03/04 11:27:29;;;;;;;26.55;14.27;;;;;;;;;;5089920;28;20028;-68
2022/03/04 11:29:56;;;;;;;27.17;14.57;;;;;;;;;;5085653;28;20688;-68
2022/03/04 11:32:29;;;;;;;26.30;14.40;;;;;;;;;;5089494;28;20043;-68
2022/03/04 11:34:55;;;;;;;27.42;14.60;;;;;;;;;;5068874;28;20063;-69
2022/03/04 11:37:23;;;;;;;27.70;14.85;;;;;;;;;;5081611;28;20036;-68
2022/03/04 11:40:33;;;;;;;25.83;14.43;;;;;;;;;;5090561;28;20040;-68
2022/03/04 11:42:57;;;;;;;26.75;13.02;;;;;;;;;;5068424;28;20048;-68
2022/03/04 11:45:39;;;;;;;25.80;14.48;;;;;;;;;;5081648;28;20079;-69
2022/03/04 11:48:06;;;;;;;31.00;15.88;;;;;;;;;;5089878;28;20154;-67
2022/03/04 11:50:33;;;;;;;25.38;13.98;;;;;;;;;;5076186;28;20375;-70
2022/03/04 11:53:12;;;;;;;29.17;15.30;;;;;;;;;;5090135;28;20167;-70
2022/03/04 11:55:38;;;;;;;26.35;14.65;;;;;;;;;;5089553;28;20044;-67
2022/03/04 11:58:05;;;;;;;24.80;14.13;;;;;;;;;;5089087;28;20059;-67
2022/03/04 12:00:33;;;;;;;31.65;15.38;;;;;;;;;;5088497;28;20047;-69
2022/03/04 12:03:00;;;;;;;26.65;14.52;;;;;;;;;;5089159;28;20626;-68
2022/03/04 12:05:32;;;;;;;27.58;14.98;;;;;;;;;;5085675;28;20086;-70
2022/03/04 12:08:01;;;;;;;26.83;13.65;;;;;;;;;;5090709;28;20040;-70
2022/03/04 12:10:30;;;;;;;25.88;14.13;;;;;;;;;;5090795;28;20046;-68
2022/03/04 12:13:01;;;;;;;26.30;14.15;;;;;;;;;;5092397;28;20506;-68
2022/03/04 12:15:27;;;;;;;22.73;13.77;;;;;;;;;;5093031;28;20050;-67
2022/03/04 12:17:54;;;;;;;23.67;12.68;;;;;;;;;;5093424;28;20074;-67
2022/03/04 12:20:27;;;;;;;23.95;13.68;;;;;;;;;;5092643;28;20047;-67
2022/03/04 12:22:57;;;;;;;23.48;14.43;;;;;;;;;;5093289;28;20038;-67
2022/03/04 12:25:23;;;;;;;24.13;12.60;;;;;;;;;;5091285;28;20423;-67
2022/03/04 12:27:54;;;;;;;23.35;13.00;;;;;;;;;;5092836;28;20051;-67
2022/03/04 12:30:22;;;;;;;30.48;15.30;;;;;;;;;;5093176;28;20047;-67
2022/03/04 12:32:49;;;;;;;23.48;12.90;;;;;;;;;;5093133;28;20044;-66
2022/03/04 12:35:18;;;;;;;22.23;12.55;;;;;;;;;;5092388;28;20047;-67
2022/03/04 12:37:44;;;;;;;25.05;13.77;;;;;;;;;;5093185;28;20040;-66
2022/03/04 12:40:11;;;;;;;22.40;13.50;;;;;;;;;;5093526;28;20119;-66
2022/03/04 12:42:37;;;;;;;24.42;12.90;;;;;;;;;;5092299;28;20066;-69
2022/03/04 12:45:09;;;;;;;20.33;12.43;;;;;;;;;;5092631;28;20071;-67
2022/03/04 12:47:36;;;;;;;19.88;12.15;;;;;;;;;;5092806;28;20040;-66
2022/03/04 12:50:05;;;;;;;20.50;12.45;;;;;;;;;;5092133;28;20044;-68
2022/03/04 12:52:31;;;;;;;20.20;12.32;;;;;;;;;;5092979;28;20051;-67
2022/03/04 12:55:10;;;;;;;21.50;12.77;;;;;;;;;;5089657;28;20040;-68
2022/03/04 12:57:40;;;;;;;18.98;12.23;;;;;;;;;;5091512;28;20104;-66
2022/03/04 13:00:06;;;;;;;21.98;12.57;;;;;;;;;;5091907;28;20386;-68
2022/03/04 13:02:35;;;;;;;17.08;11.13;;;;;;;;;;5092554;28;20409;-68
2022/03/04 13:05:02;;;;;;;17.98;11.23;;;;;;;;;;5091304;28;20075;-67
2022/03/04 13:07:28;;;;;;;15.98;10.00;;;;;;;;;;5090072;28;20093;-68
2022/03/04 13:09:57;;;;;;;17.17;9.98;;;;;;;;;;5090354;28;20044;-68
2022/03/04 13:12:24;;;;;;;15.73;10.18;;;;;;;;;;5091579;28;20123;-68
2022/03/04 13:14:50;;;;;;;14.75;9.80;;;;;;;;;;5092143;28;20048;-67
2022/03/04 13:17:17;;;;;;;16.00;9.85;;;;;;;;;;5091929;28;20044;-65
2022/03/04 13:19:43;;;;;;;14.57;9.43;;;;;;;;;;5090670;28;20143;-69
2022/03/04 13:22:18;;;;;;;13.07;8.80;;;;;;;;;;5090152;28;20091;-67
2022/03/04 13:25:04;;;;;;;14.38;9.18;;;;;;;;;;5092440;28;20048;-67
2022/03/04 13:27:43;;;;;;;14.63;9.73;;;;;;;;;;5088917;28;20119;-67
2022/03/04 13:30:10;;;;;;;14.57;9.48;;;;;;;;;;5091433;28;20124;-67
2022/03/04 13:32:42;;;;;;;13.48;9.25;;;;;;;;;;5091058;28;20417;-71
2022/03/04 13:35:10;;;;;;;13.13;8.73;;;;;;;;;;5091013;28;20516;-68
2022/03/04 13:37:41;;;;;;;11.43;8.13;;;;;;;;;;5091727;28;20051;-69
2022/03/04 13:40:07;;;;;;;12.23;8.65;;;;;;;;;;5091242;28;20097;-70
2022/03/04 13:42:34;;;;;;;15.10;8.80;;;;;;;;;;5089602;28;20115;-69
2022/03/04 13:45:01;;;;;;;13.45;9.10;;;;;;;;;;5088656;28;20044;-70
2022/03/04 13:47:30;;;;;;;14.68;8.52;;;;;;;;;;5092242;28;20553;-69
2022/03/04 13:49:56;;;;;;;15.38;9.65;;;;;;;;;;5090145;28;20100;-69
2022/03/04 13:52:22;;;;;;;13.90;9.15;;;;;;;;;;5092111;28;20131;-69
2022/03/04 13:54:48;;;;;;;15.10;8.50;;;;;;;;;;5088548;28;20055;-70
2022/03/04 13:57:25;;;;;;;12.75;8.80;;;;;;;;;;5090776;28;20104;-68
2022/03/04 13:59:51;;;;;;;12.85;8.77;;;;;;;;;;5090192;28;20090;-66
2022/03/04 14:02:17;;;;;;;11.52;8.50;;;;;;;;;;5088887;28;20032;-67
2022/03/04 14:04:53;;;;;;;14.98;8.88;;;;;;;;;;5090951;28;20068;-68
2022/03/04 14:07:21;;;;;;;13.65;8.70;;;;;;;;;;5090193;28;20075;-67
2022/03/04 14:09:50;;;;;;;13.43;8.98;;;;;;;;;;5091585;28;20364;-69
2022/03/04 14:12:16;;;;;;;16.40;9.63;;;;;;;;;;5091133;28;20122;-70
2022/03/04 14:14:42;;;;;;;13.20;8.25;;;;;;;;;;5079165;28;20173;-68
2022/03/04 14:17:08;;;;;;;13.95;8.75;;;;;;;;;;5089950;28;20458;-71
2022/03/04 14:19:34;;;;;;;14.57;8.55;;;;;;;;;;5085118;28;20044;-71